createdAt,value
2018-09-04T00:03:21.342Z,99.99
2018-09-04T00:08:17.446Z,99.99
2018-09-04T00:13:12.925Z,99.99
2018-09-04T00:18:09.472Z,99.99
2018-09-04T00:23:05.287Z,99.99
2018-09-04T00:28:01.163Z,99.99
2018-09-04T00:32:57.313Z,99.99
2018-09-04T00:37:54.180Z,99.99
2018-09-04T00:42:51.017Z,99.99
2018-09-04T00:47:46.692Z,99.99
2018-09-04T00:52:42.685Z,99.99
2018-09-04T00:57:38.437Z,99.99
2018-09-04T01:02:34.194Z,99.99
2018-09-04T01:07:31.140Z,99.99
2018-09-04T01:12:28.187Z,99.99
2018-09-04T01:17:23.752Z,99.99
2018-09-04T01:22:20.955Z,99.99
2018-09-04T01:27:17.899Z,99.99
2018-09-04T01:32:13.523Z,99.99
2018-09-04T01:37:09.564Z,99.99
2018-09-04T01:42:06.378Z,99.99
2018-09-04T01:47:01.854Z,99.99
2018-09-04T01:51:57.514Z,99.99
2018-09-04T01:56:53.458Z,99.99
2018-09-04T02:01:49.379Z,99.99
2018-09-04T02:06:45.185Z,99.99
2018-09-04T02:11:40.905Z,99.99
2018-09-04T02:16:37.419Z,99.99
2018-09-04T02:21:33.484Z,99.99
2018-09-04T02:26:29.373Z,99.99
2018-09-04T02:31:25.189Z,99.99
2018-09-04T02:36:21.284Z,99.99
2018-09-04T02:41:17.683Z,99.99
2018-09-04T02:46:13.580Z,99.99
2018-09-04T02:51:09.544Z,99.99
2018-09-04T02:56:05.415Z,99.99
2018-09-04T03:01:01.278Z,99.99
2018-09-04T03:05:57.743Z,99.99
2018-09-04T03:10:53.758Z,99.99
2018-09-04T03:15:49.440Z,99.99
2018-09-04T03:20:45.289Z,99.99
2018-09-04T03:25:42.184Z,99.99
2018-09-04T03:30:38.392Z,99.99
2018-09-04T03:35:34.174Z,99.99
2018-09-04T03:40:31.000Z,99.99
2018-09-04T03:45:26.642Z,99.99
2018-09-04T03:50:22.438Z,99.99
2018-09-04T03:55:18.355Z,99.99
2018-09-04T04:00:14.171Z,99.99
2018-09-04T04:05:10.108Z,99.99
2018-09-04T04:10:06.060Z,99.99
2018-09-04T04:15:01.871Z,99.99
2018-09-04T04:19:59.001Z,99.99
2018-09-04T04:24:54.598Z,99.99
2018-09-04T04:29:50.477Z,99.99
2018-09-04T04:34:46.330Z,99.99
2018-09-04T04:39:42.157Z,99.99
2018-09-04T04:44:38.030Z,99.99
2018-09-04T04:49:33.621Z,99.99
2018-09-04T04:54:30.687Z,99.99
2018-09-04T04:59:26.457Z,99.99
2018-09-04T05:04:23.562Z,99.99
2018-09-04T05:09:19.165Z,99.99
2018-09-04T05:14:15.986Z,99.99
2018-09-04T05:19:11.770Z,99.99
2018-09-04T05:24:08.043Z,99.99
2018-09-04T05:29:04.217Z,99.99
2018-09-04T05:34:00.053Z,99.99
2018-09-04T05:38:55.830Z,99.99
2018-09-04T05:43:52.672Z,99.99
2018-09-04T05:48:48.584Z,99.99
2018-09-04T05:53:44.681Z,99.99
2018-09-04T05:58:40.684Z,99.99
2018-09-04T06:03:37.947Z,99.99
2018-09-04T06:08:33.510Z,99.99
2018-09-04T06:13:29.663Z,99.99
2018-09-04T06:18:26.100Z,99.99
2018-09-04T06:23:22.279Z,99.99
2018-09-04T06:28:18.243Z,99.99
2018-09-04T06:33:15.320Z,99.99
2018-09-04T06:38:11.532Z,99.99
2018-09-04T06:43:07.812Z,99.99
2018-09-04T06:48:04.695Z,99.99
2018-09-04T06:53:00.329Z,99.99
2018-09-04T06:57:56.651Z,99.99
2018-09-04T07:02:52.605Z,99.99
2018-09-04T07:07:48.574Z,99.99
2018-09-04T07:12:44.557Z,99.99
2018-09-04T07:17:40.513Z,99.99
2018-09-04T07:22:36.701Z,99.99
2018-09-04T07:27:32.924Z,99.99
2018-09-04T07:32:29.282Z,99.99
2018-09-04T07:37:26.272Z,99.99
2018-09-04T07:42:21.898Z,99.99
2018-09-04T07:47:18.807Z,99.99
2018-09-04T07:52:14.452Z,99.99
2018-09-04T07:57:10.675Z,99.99
2018-09-04T08:02:06.688Z,99.99
2018-09-04T08:07:03.434Z,99.99
2018-09-04T08:12:00.693Z,99.99
2018-09-04T08:16:56.577Z,99.99
2018-09-04T08:21:53.238Z,99.99
2018-09-04T08:26:49.138Z,99.99
2018-09-04T08:31:46.268Z,99.99
2018-09-04T08:36:42.945Z,99.99
2018-09-04T08:41:38.917Z,99.99
2018-09-04T08:46:35.046Z,99.99
2018-09-04T08:51:32.352Z,99.99
2018-09-04T08:56:28.207Z,99.99
2018-09-04T09:01:24.870Z,99.99
2018-09-04T09:06:21.377Z,99.99
2018-09-04T09:11:18.706Z,99.99
2018-09-04T09:16:15.213Z,99.99
2018-09-04T09:21:11.322Z,99.99
2018-09-04T09:26:08.080Z,99.99
2018-09-04T09:31:04.153Z,99.99
2018-09-04T09:36:00.272Z,99.99
2018-09-04T09:40:57.557Z,99.99
2018-09-04T09:45:54.283Z,99.99
2018-09-04T09:50:50.291Z,99.99
2018-09-04T09:55:46.356Z,99.99
2018-09-04T10:00:42.246Z,99.99
2018-09-04T10:05:39.329Z,99.99
2018-09-04T10:10:34.978Z,99.99
2018-09-04T10:15:32.055Z,99.99
2018-09-04T10:20:29.506Z,98.97
2018-09-04T10:25:26.424Z,93.50
2018-09-04T10:30:23.439Z,92.96
2018-09-04T10:35:19.841Z,91.12
2018-09-04T10:40:16.189Z,88.65
2018-09-04T10:45:12.960Z,85.43
2018-09-04T10:50:09.912Z,81.73
2018-09-04T10:55:06.633Z,80.60
2018-09-04T11:00:03.542Z,80.79
2018-09-04T11:05:01.343Z,75.84
2018-09-04T11:09:57.166Z,78.38
2018-09-04T11:14:53.175Z,78.23
2018-09-04T11:19:49.679Z,75.48
2018-09-04T11:24:46.119Z,74.22
2018-09-04T11:29:42.487Z,75.45
2018-09-04T11:34:38.534Z,74.96
2018-09-04T11:39:34.811Z,75.35
2018-09-04T11:44:30.954Z,77.51
2018-09-04T11:49:26.769Z,78.03
2018-09-04T11:54:24.105Z,75.93
2018-09-04T11:59:20.049Z,75.09
2018-09-04T12:04:15.379Z,76.38
2018-09-04T12:14:09.532Z,81.27
2018-09-04T12:19:05.058Z,81.18
2018-09-04T12:24:01.225Z,79.47
2018-09-04T12:28:56.887Z,78.89
2018-09-04T12:33:53.270Z,78.94
2018-09-04T12:38:48.743Z,75.74
2018-09-04T12:43:44.343Z,77.01
2018-09-04T12:48:40.343Z,75.94
2018-09-04T12:53:36.276Z,77.24
2018-09-04T12:58:32.275Z,77.14
2018-09-04T13:03:28.210Z,76.65
2018-09-04T13:08:24.652Z,77.24
2018-09-04T13:13:20.668Z,75.98
2018-09-04T13:18:16.839Z,75.40
2018-09-04T13:23:12.823Z,74.91
2018-09-04T13:28:09.048Z,73.10
2018-09-04T13:33:06.204Z,74.75
2018-09-04T13:38:01.995Z,74.75
2018-09-04T13:42:57.998Z,73.88
2018-09-04T13:47:54.892Z,72.03
2018-09-04T13:52:50.586Z,70.29
2018-09-04T13:57:46.570Z,71.94
2018-09-04T14:02:42.851Z,72.65
2018-09-04T14:07:39.087Z,72.91
2018-09-04T14:12:36.191Z,73.39
2018-09-04T14:17:32.074Z,69.64
2018-09-04T14:22:29.241Z,70.45
2018-09-04T14:27:26.259Z,69.09
2018-09-04T14:32:22.324Z,70.84
2018-09-04T14:37:18.647Z,69.71
2018-09-04T14:42:14.860Z,67.93
2018-09-04T14:47:10.874Z,68.70
2018-09-04T14:52:06.629Z,70.81
2018-09-04T14:57:03.476Z,86.46
2018-09-04T15:01:58.675Z,93.65
2018-09-04T15:06:53.988Z,99.41
2018-09-04T15:11:50.279Z,99.70
2018-09-04T15:16:45.592Z,99.99
2018-09-04T15:21:41.156Z,99.99
2018-09-04T15:26:37.046Z,99.99
2018-09-04T15:31:33.098Z,99.99
2018-09-04T15:36:29.803Z,99.99
2018-09-04T15:41:25.453Z,99.99
2018-09-04T15:46:22.323Z,99.99
2018-09-04T15:51:18.284Z,99.99
2018-09-04T15:56:14.172Z,99.99
2018-09-04T16:01:10.320Z,99.99
2018-09-04T16:06:06.602Z,99.99
2018-09-04T16:11:02.946Z,99.99
2018-09-04T16:15:59.103Z,99.99
2018-09-04T16:20:55.108Z,99.99
2018-09-04T16:25:52.133Z,99.99
2018-09-04T16:30:49.331Z,99.99
2018-09-04T16:35:44.915Z,99.99
2018-09-04T16:40:40.743Z,99.99
2018-09-04T16:45:37.614Z,98.44
2018-09-04T16:50:33.159Z,91.08
2018-09-04T16:55:30.245Z,88.28
2018-09-04T17:00:25.982Z,87.50
2018-09-04T17:05:21.987Z,86.44
2018-09-04T17:10:18.219Z,85.37
2018-09-04T17:15:13.972Z,86.10
2018-09-04T17:20:10.380Z,87.85
2018-09-04T17:25:06.260Z,88.33
2018-09-04T17:30:02.329Z,89.93
2018-09-04T17:34:58.042Z,89.93
2018-09-04T17:39:54.858Z,91.53
2018-09-04T17:44:50.819Z,91.91
2018-09-04T17:49:47.482Z,93.75
2018-09-04T17:54:42.772Z,94.72
2018-09-04T17:59:39.037Z,93.56
2018-09-04T18:04:35.147Z,93.95
2018-09-04T18:09:30.879Z,93.90
2018-09-04T18:14:27.033Z,93.61
2018-09-04T18:19:22.727Z,92.65
2018-09-04T18:24:19.025Z,91.67
2018-09-04T18:29:15.967Z,91.00
2018-09-04T18:34:11.304Z,93.66
2018-09-04T18:39:07.440Z,93.76
2018-09-04T18:44:02.998Z,93.37
2018-09-04T18:49:00.063Z,94.04
2018-09-04T18:53:55.649Z,92.89
2018-09-04T18:58:51.416Z,94.20
2018-09-04T19:03:47.326Z,97.09
2018-09-04T19:08:43.337Z,96.99
2018-09-04T19:13:39.164Z,96.70
2018-09-04T19:18:34.976Z,95.64
2018-09-04T19:23:31.247Z,95.25
2018-09-04T19:28:27.090Z,96.51
2018-09-04T19:33:23.368Z,97.38
2018-09-04T19:38:19.267Z,99.07
2018-09-04T19:43:15.329Z,99.99
2018-09-04T19:48:12.186Z,99.99
2018-09-04T19:53:08.796Z,99.99
2018-09-04T19:58:04.457Z,99.99
2018-09-04T20:03:00.189Z,99.99
2018-09-04T20:07:55.928Z,99.99
2018-09-04T20:12:52.065Z,99.99
2018-09-04T20:17:47.994Z,99.99
2018-09-04T20:22:44.077Z,99.99
2018-09-04T20:27:39.667Z,99.99
2018-09-04T20:32:36.588Z,99.99
2018-09-04T20:37:33.510Z,99.99
2018-09-04T20:42:29.137Z,99.99
2018-09-04T20:47:25.138Z,99.99
2018-09-04T20:52:22.026Z,99.99
2018-09-04T20:57:17.789Z,99.99
2018-09-04T21:02:13.834Z,99.99
2018-09-04T21:07:09.887Z,99.99
2018-09-04T21:12:05.816Z,99.99
2018-09-04T21:17:02.973Z,99.99
2018-09-04T21:21:58.609Z,99.99
2018-09-04T21:26:54.602Z,99.99
2018-09-04T21:31:50.416Z,99.99
2018-09-04T21:36:46.123Z,99.99
2018-09-04T21:41:41.930Z,99.99
2018-09-04T21:46:37.583Z,99.99
2018-09-04T21:51:33.848Z,99.99
2018-09-04T21:56:31.096Z,99.99
2018-09-04T22:01:26.455Z,99.99
2018-09-04T22:06:22.345Z,99.99
2018-09-04T22:11:17.980Z,99.99
2018-09-04T22:16:13.941Z,99.99
2018-09-04T22:21:10.865Z,99.99
2018-09-04T22:26:06.475Z,99.99
2018-09-04T22:31:03.448Z,99.99
2018-09-04T22:35:58.989Z,99.99
2018-09-04T22:40:54.867Z,99.99
2018-09-04T22:45:50.704Z,99.99
2018-09-04T22:50:46.758Z,99.99
2018-09-04T22:55:42.613Z,99.99
2018-09-04T23:00:38.814Z,99.99
2018-09-04T23:05:35.609Z,99.99
2018-09-04T23:10:32.089Z,99.99
2018-09-04T23:15:27.678Z,99.99
2018-09-04T23:20:23.479Z,99.99
2018-09-04T23:25:20.458Z,99.99
2018-09-04T23:30:16.110Z,99.99
2018-09-04T23:35:13.077Z,99.99
2018-09-04T23:40:08.490Z,99.99
2018-09-04T23:45:04.099Z,99.99
2018-09-04T23:49:59.818Z,99.99
2018-09-04T23:54:56.717Z,99.99
2018-09-04T23:59:53.912Z,99.99
